sensor_id;sensor_type;location;lat;lon;timestamp;P1;durP1;ratioP1;P2;durP2;ratioP2
4359;SDS011;2193;47.980;7.660;2023-02-15T00:01:08;61.53;;;24.93;;
4359;SDS011;2193;47.980;7.660;2023-02-15T00:03:34;245.82;;;33.70;;
4359;SDS011;2193;47.980;7.660;2023-02-15T00:06:00;287.47;;;32.60;;
4359;SDS011;2193;47.980;7.660;2023-02-15T00:08:25;94.13;;;24.50;;
4359;SDS011;2193;47.980;7.660;2023-02-15T00:10:50;98.93;;;27.83;;
4359;SDS011;2193;47.980;7.660;2023-02-15T00:13:15;72.07;;;26.93;;
4359;SDS011;2193;47.980;7.660;2023-02-15T00:15:40;63.93;;;24.73;;
4359;SDS011;2193;47.980;7.660;2023-02-15T00:18:06;60.97;;;26.30;;
4359;SDS011;2193;47.980;7.660;2023-02-15T00:20:31;66.73;;;25.17;;
4359;SDS011;2193;47.980;7.660;2023-02-15T00:22:56;77.73;;;25.63;;
4359;SDS011;2193;47.980;7.660;2023-02-15T00:25:21;135.53;;;28.40;;
4359;SDS011;2193;47.980;7.660;2023-02-15T00:27:46;191.60;;;31.77;;
4359;SDS011;2193;47.980;7.660;2023-02-15T00:30:12;88.70;;;25.83;;
4359;SDS011;2193;47.980;7.660;2023-02-15T00:32:37;76.07;;;27.30;;
4359;SDS011;2193;47.980;7.660;2023-02-15T00:35:02;66.53;;;24.23;;
4359;SDS011;2193;47.980;7.660;2023-02-15T00:37:27;52.27;;;24.57;;
4359;SDS011;2193;47.980;7.660;2023-02-15T00:39:52;115.87;;;25.93;;
4359;SDS011;2193;47.980;7.660;2023-02-15T00:42:18;66.50;;;24.77;;
4359;SDS011;2193;47.980;7.660;2023-02-15T00:44:43;86.77;;;25.57;;
4359;SDS011;2193;47.980;7.660;2023-02-15T00:47:08;91.63;;;25.50;;
4359;SDS011;2193;47.980;7.660;2023-02-15T00:49:33;62.33;;;25.80;;
4359;SDS011;2193;47.980;7.660;2023-02-15T00:51:58;126.23;;;25.30;;
4359;SDS011;2193;47.980;7.660;2023-02-15T00:54:23;77.30;;;24.83;;
4359;SDS011;2193;47.980;7.660;2023-02-15T00:56:49;153.60;;;25.23;;
4359;SDS011;2193;47.980;7.660;2023-02-15T00:59:14;53.10;;;21.93;;
4359;SDS011;2193;47.980;7.660;2023-02-15T01:01:39;73.77;;;23.57;;
4359;SDS011;2193;47.980;7.660;2023-02-15T01:04:04;65.33;;;21.57;;
4359;SDS011;2193;47.980;7.660;2023-02-15T01:06:29;47.60;;;22.00;;
4359;SDS011;2193;47.980;7.660;2023-02-15T01:08:55;63.83;;;23.90;;
4359;SDS011;2193;47.980;7.660;2023-02-15T01:11:20;176.73;;;26.50;;
4359;SDS011;2193;47.980;7.660;2023-02-15T01:13:50;231.50;;;28.35;;
4359;SDS011;2193;47.980;7.660;2023-02-15T01:16:15;248.10;;;30.43;;
4359;SDS011;2193;47.980;7.660;2023-02-15T01:18:40;161.00;;;28.40;;
4359;SDS011;2193;47.980;7.660;2023-02-15T01:21:19;73.73;;;23.90;;
4359;SDS011;2193;47.980;7.660;2023-02-15T01:23:45;176.45;;;28.40;;
4359;SDS011;2193;47.980;7.660;2023-02-15T01:26:10;86.33;;;25.93;;
4359;SDS011;2193;47.980;7.660;2023-02-15T01:28:35;74.07;;;24.20;;
4359;SDS011;2193;47.980;7.660;2023-02-15T01:31:07;98.30;;;24.60;;
4359;SDS011;2193;47.980;7.660;2023-02-15T01:33:33;68.53;;;24.13;;
4359;SDS011;2193;47.980;7.660;2023-02-15T01:35:58;98.07;;;24.73;;
4359;SDS011;2193;47.980;7.660;2023-02-15T01:38:23;258.13;;;31.13;;
4359;SDS011;2193;47.980;7.660;2023-02-15T01:40:52;267.63;;;31.53;;
4359;SDS011;2193;47.980;7.660;2023-02-15T01:43:18;183.75;;;29.95;;
4359;SDS011;2193;47.980;7.660;2023-02-15T01:45:43;112.33;;;26.30;;
4359;SDS011;2193;47.980;7.660;2023-02-15T01:48:20;112.95;;;26.48;;
4359;SDS011;2193;47.980;7.660;2023-02-15T01:51:05;168.27;;;26.52;;
4359;SDS011;2193;47.980;7.660;2023-02-15T01:53:34;83.70;;;24.88;;
4359;SDS011;2193;47.980;7.660;2023-02-15T01:56:03;233.57;;;29.58;;
4359;SDS011;2193;47.980;7.660;2023-02-15T01:58:29;212.85;;;31.45;;
4359;SDS011;2193;47.980;7.660;2023-02-15T02:00:55;257.87;;;31.80;;
4359;SDS011;2193;47.980;7.660;2023-02-15T02:03:24;310.83;;;32.45;;
4359;SDS011;2193;47.980;7.660;2023-02-15T02:05:52;207.45;;;32.03;;
4359;SDS011;2193;47.980;7.660;2023-02-15T02:08:17;477.80;;;40.30;;
4359;SDS011;2193;47.980;7.660;2023-02-15T02:10:43;207.57;;;30.73;;
4359;SDS011;2193;47.980;7.660;2023-02-15T02:13:08;258.23;;;30.10;;
4359;SDS011;2193;47.980;7.660;2023-02-15T02:15:41;244.10;;;31.77;;
4359;SDS011;2193;47.980;7.660;2023-02-15T02:18:21;171.23;;;30.95;;
4359;SDS011;2193;47.980;7.660;2023-02-15T02:20:53;170.98;;;28.50;;
4359;SDS011;2193;47.980;7.660;2023-02-15T02:23:23;322.70;;;35.58;;
4359;SDS011;2193;47.980;7.660;2023-02-15T02:36:21;535.50;;;43.58;;
4359;SDS011;2193;47.980;7.660;2023-02-15T02:49:08;292.80;;;34.80;;
4359;SDS011;2193;47.980;7.660;2023-02-15T02:51:34;113.03;;;29.13;;
4359;SDS011;2193;47.980;7.660;2023-02-15T02:53:59;85.13;;;28.10;;
4359;SDS011;2193;47.980;7.660;2023-02-15T02:56:30;96.82;;;27.25;;
4359;SDS011;2193;47.980;7.660;2023-02-15T03:01:42;126.93;;;29.15;;
4359;SDS011;2193;47.980;7.660;2023-02-15T03:04:20;128.50;;;28.55;;
4359;SDS011;2193;47.980;7.660;2023-02-15T03:06:50;71.82;;;24.25;;
4359;SDS011;2193;47.980;7.660;2023-02-15T03:12:06;72.53;;;26.48;;
4359;SDS011;2193;47.980;7.660;2023-02-15T03:14:32;87.20;;;25.02;;
4359;SDS011;2193;47.980;7.660;2023-02-15T03:16:57;82.50;;;30.47;;
4359;SDS011;2193;47.980;7.660;2023-02-15T03:19:24;121.73;;;25.90;;
4359;SDS011;2193;47.980;7.660;2023-02-15T03:21:53;132.85;;;29.85;;
4359;SDS011;2193;47.980;7.660;2023-02-15T03:24:24;147.93;;;27.92;;
4359;SDS011;2193;47.980;7.660;2023-02-15T03:26:50;249.82;;;35.17;;
4359;SDS011;2193;47.980;7.660;2023-02-15T03:29:18;189.38;;;33.00;;
4359;SDS011;2193;47.980;7.660;2023-02-15T03:31:45;374.65;;;39.85;;
4359;SDS011;2193;47.980;7.660;2023-02-15T03:34:12;348.00;;;37.15;;
4359;SDS011;2193;47.980;7.660;2023-02-15T03:36:50;231.05;;;32.75;;
4359;SDS011;2193;47.980;7.660;2023-02-15T03:41:56;240.82;;;33.58;;
4359;SDS011;2193;47.980;7.660;2023-02-15T03:44:25;187.50;;;32.78;;
4359;SDS011;2193;47.980;7.660;2023-02-15T03:47:13;202.30;;;34.13;;
4359;SDS011;2193;47.980;7.660;2023-02-15T03:49:39;259.35;;;35.28;;
4359;SDS011;2193;47.980;7.660;2023-02-15T03:52:06;265.17;;;35.78;;
4359;SDS011;2193;47.980;7.660;2023-02-15T03:54:33;175.48;;;33.03;;
4359;SDS011;2193;47.980;7.660;2023-02-15T03:57:12;403.80;;;38.65;;
4359;SDS011;2193;47.980;7.660;2023-02-15T03:59:56;266.02;;;34.15;;
4359;SDS011;2193;47.980;7.660;2023-02-15T04:05:25;288.77;;;34.25;;
4359;SDS011;2193;47.980;7.660;2023-02-15T04:07:50;202.40;;;34.83;;
4359;SDS011;2193;47.980;7.660;2023-02-15T04:10:15;166.43;;;33.80;;
4359;SDS011;2193;47.980;7.660;2023-02-15T04:12:59;206.43;;;32.40;;
4359;SDS011;2193;47.980;7.660;2023-02-15T04:15:24;294.00;;;37.40;;
4359;SDS011;2193;47.980;7.660;2023-02-15T04:18:07;234.85;;;34.83;;
4359;SDS011;2193;47.980;7.660;2023-02-15T04:20:33;307.37;;;35.70;;
4359;SDS011;2193;47.980;7.660;2023-02-15T04:23:16;212.45;;;34.17;;
4359;SDS011;2193;47.980;7.660;2023-02-15T04:26:02;241.20;;;32.67;;
4359;SDS011;2193;47.980;7.660;2023-02-15T04:28:28;141.35;;;31.40;;
4359;SDS011;2193;47.980;7.660;2023-02-15T04:30:53;405.73;;;40.63;;
4359;SDS011;2193;47.980;7.660;2023-02-15T04:33:18;318.57;;;30.73;;
4359;SDS011;2193;47.980;7.660;2023-02-15T04:35:43;187.83;;;30.67;;
4359;SDS011;2193;47.980;7.660;2023-02-15T04:38:10;217.13;;;32.03;;
4359;SDS011;2193;47.980;7.660;2023-02-15T04:40:35;102.30;;;27.40;;
4359;SDS011;2193;47.980;7.660;2023-02-15T04:43:00;204.57;;;28.70;;
4359;SDS011;2193;47.980;7.660;2023-02-15T04:45:26;302.00;;;30.87;;
4359;SDS011;2193;47.980;7.660;2023-02-15T04:47:52;105.25;;;27.60;;
4359;SDS011;2193;47.980;7.660;2023-02-15T04:50:17;213.37;;;28.10;;
4359;SDS011;2193;47.980;7.660;2023-02-15T04:52:42;78.77;;;25.83;;
4359;SDS011;2193;47.980;7.660;2023-02-15T04:55:07;207.20;;;28.40;;
4359;SDS011;2193;47.980;7.660;2023-02-15T04:57:32;133.03;;;25.47;;
4359;SDS011;2193;47.980;7.660;2023-02-15T04:59:58;213.30;;;30.93;;
4359;SDS011;2193;47.980;7.660;2023-02-15T05:02:24;100.65;;;26.15;;
4359;SDS011;2193;47.980;7.660;2023-02-15T05:04:49;175.70;;;29.10;;
4359;SDS011;2193;47.980;7.660;2023-02-15T05:07:14;344.30;;;30.63;;
4359;SDS011;2193;47.980;7.660;2023-02-15T05:09:39;252.33;;;31.13;;
4359;SDS011;2193;47.980;7.660;2023-02-15T05:12:05;369.73;;;33.77;;
4359;SDS011;2193;47.980;7.660;2023-02-15T05:14:30;381.33;;;33.53;;
4359;SDS011;2193;47.980;7.660;2023-02-15T05:16:55;167.43;;;26.93;;
4359;SDS011;2193;47.980;7.660;2023-02-15T05:19:20;295.27;;;30.10;;
4359;SDS011;2193;47.980;7.660;2023-02-15T05:21:48;116.28;;;25.08;;
4359;SDS011;2193;47.980;7.660;2023-02-15T05:24:13;73.40;;;23.40;;
4359;SDS011;2193;47.980;7.660;2023-02-15T05:26:56;70.97;;;22.27;;
4359;SDS011;2193;47.980;7.660;2023-02-15T05:29:40;162.23;;;25.55;;
4359;SDS011;2193;47.980;7.660;2023-02-15T05:32:06;94.47;;;24.57;;
4359;SDS011;2193;47.980;7.660;2023-02-15T05:34:31;92.03;;;24.40;;
4359;SDS011;2193;47.980;7.660;2023-02-15T05:36:56;101.90;;;22.07;;
4359;SDS011;2193;47.980;7.660;2023-02-15T05:39:22;221.17;;;27.50;;
4359;SDS011;2193;47.980;7.660;2023-02-15T05:41:47;215.57;;;25.40;;
4359;SDS011;2193;47.980;7.660;2023-02-15T05:44:12;176.13;;;27.90;;
4359;SDS011;2193;47.980;7.660;2023-02-15T05:46:37;240.97;;;29.57;;
4359;SDS011;2193;47.980;7.660;2023-02-15T05:49:02;299.40;;;31.27;;
4359;SDS011;2193;47.980;7.660;2023-02-15T05:51:27;243.07;;;27.70;;
4359;SDS011;2193;47.980;7.660;2023-02-15T05:53:53;397.90;;;33.80;;
4359;SDS011;2193;47.980;7.660;2023-02-15T05:56:18;254.27;;;31.10;;
4359;SDS011;2193;47.980;7.660;2023-02-15T05:58:43;337.57;;;34.07;;
4359;SDS011;2193;47.980;7.660;2023-02-15T06:01:13;362.27;;;31.50;;
4359;SDS011;2193;47.980;7.660;2023-02-15T06:03:38;87.88;;;27.20;;
4359;SDS011;2193;47.980;7.660;2023-02-15T06:06:03;114.33;;;28.97;;
4359;SDS011;2193;47.980;7.660;2023-02-15T06:08:29;119.30;;;24.00;;
4359;SDS011;2193;47.980;7.660;2023-02-15T06:10:55;112.73;;;27.33;;
4359;SDS011;2193;47.980;7.660;2023-02-15T06:13:20;195.47;;;28.50;;
4359;SDS011;2193;47.980;7.660;2023-02-15T06:15:46;96.80;;;24.10;;
4359;SDS011;2193;47.980;7.660;2023-02-15T06:18:11;207.63;;;26.73;;
4359;SDS011;2193;47.980;7.660;2023-02-15T06:20:36;158.77;;;27.50;;
4359;SDS011;2193;47.980;7.660;2023-02-15T06:23:01;223.13;;;27.73;;
4359;SDS011;2193;47.980;7.660;2023-02-15T06:25:27;178.60;;;30.03;;
4359;SDS011;2193;47.980;7.660;2023-02-15T06:27:52;113.40;;;25.00;;
4359;SDS011;2193;47.980;7.660;2023-02-15T06:30:17;230.73;;;31.10;;
4359;SDS011;2193;47.980;7.660;2023-02-15T06:32:42;66.57;;;24.67;;
4359;SDS011;2193;47.980;7.660;2023-02-15T06:35:07;113.40;;;22.80;;
4359;SDS011;2193;47.980;7.660;2023-02-15T06:37:33;67.43;;;26.03;;
4359;SDS011;2193;47.980;7.660;2023-02-15T06:39:58;50.23;;;21.97;;
4359;SDS011;2193;47.980;7.660;2023-02-15T06:42:23;170.83;;;24.30;;
4359;SDS011;2193;47.980;7.660;2023-02-15T06:44:48;205.20;;;26.70;;
4359;SDS011;2193;47.980;7.660;2023-02-15T06:47:14;93.97;;;23.37;;
4359;SDS011;2193;47.980;7.660;2023-02-15T06:49:39;167.27;;;26.23;;
4359;SDS011;2193;47.980;7.660;2023-02-15T06:52:04;103.27;;;23.47;;
4359;SDS011;2193;47.980;7.660;2023-02-15T06:54:29;200.47;;;26.20;;
4359;SDS011;2193;47.980;7.660;2023-02-15T06:56:54;74.73;;;22.97;;
4359;SDS011;2193;47.980;7.660;2023-02-15T06:59:20;68.67;;;22.47;;
4359;SDS011;2193;47.980;7.660;2023-02-15T07:01:45;54.20;;;22.73;;
4359;SDS011;2193;47.980;7.660;2023-02-15T07:04:10;54.70;;;20.93;;
4359;SDS011;2193;47.980;7.660;2023-02-15T07:06:35;51.40;;;22.13;;
4359;SDS011;2193;47.980;7.660;2023-02-15T07:09:00;43.20;;;20.70;;
4359;SDS011;2193;47.980;7.660;2023-02-15T07:11:26;52.30;;;22.80;;
4359;SDS011;2193;47.980;7.660;2023-02-15T07:14:09;52.00;;;19.88;;
4359;SDS011;2193;47.980;7.660;2023-02-15T07:16:35;57.93;;;18.97;;
4359;SDS011;2193;47.980;7.660;2023-02-15T07:19:00;90.20;;;20.53;;
4359;SDS011;2193;47.980;7.660;2023-02-15T07:21:25;87.87;;;20.67;;
4359;SDS011;2193;47.980;7.660;2023-02-15T07:23:50;83.47;;;20.80;;
4359;SDS011;2193;47.980;7.660;2023-02-15T07:26:16;89.60;;;24.33;;
4359;SDS011;2193;47.980;7.660;2023-02-15T07:28:41;48.43;;;20.40;;
4359;SDS011;2193;47.980;7.660;2023-02-15T07:31:06;75.63;;;20.00;;
4359;SDS011;2193;47.980;7.660;2023-02-15T07:33:31;80.30;;;19.40;;
4359;SDS011;2193;47.980;7.660;2023-02-15T07:35:57;73.97;;;20.10;;
4359;SDS011;2193;47.980;7.660;2023-02-15T07:38:24;61.08;;;20.75;;
4359;SDS011;2193;47.980;7.660;2023-02-15T07:40:49;72.80;;;20.45;;
4359;SDS011;2193;47.980;7.660;2023-02-15T07:43:15;65.37;;;20.57;;
4359;SDS011;2193;47.980;7.660;2023-02-15T07:45:40;54.10;;;20.97;;
4359;SDS011;2193;47.980;7.660;2023-02-15T07:48:05;75.70;;;22.40;;
4359;SDS011;2193;47.980;7.660;2023-02-15T07:50:31;134.80;;;22.83;;
4359;SDS011;2193;47.980;7.660;2023-02-15T07:52:56;189.63;;;24.73;;
4359;SDS011;2193;47.980;7.660;2023-02-15T07:55:21;131.27;;;23.67;;
4359;SDS011;2193;47.980;7.660;2023-02-15T07:57:47;68.97;;;20.03;;
4359;SDS011;2193;47.980;7.660;2023-02-15T08:00:13;132.23;;;22.88;;
4359;SDS011;2193;47.980;7.660;2023-02-15T08:02:39;47.85;;;21.67;;
4359;SDS011;2193;47.980;7.660;2023-02-15T08:05:04;89.50;;;21.70;;
4359;SDS011;2193;47.980;7.660;2023-02-15T08:07:30;95.37;;;22.63;;
4359;SDS011;2193;47.980;7.660;2023-02-15T08:09:55;176.70;;;25.30;;
4359;SDS011;2193;47.980;7.660;2023-02-15T08:12:20;219.80;;;24.47;;
4359;SDS011;2193;47.980;7.660;2023-02-15T08:14:45;91.37;;;22.83;;
4359;SDS011;2193;47.980;7.660;2023-02-15T08:17:10;88.20;;;22.60;;
4359;SDS011;2193;47.980;7.660;2023-02-15T08:19:35;96.57;;;21.47;;
4359;SDS011;2193;47.980;7.660;2023-02-15T08:22:02;48.33;;;19.73;;
4359;SDS011;2193;47.980;7.660;2023-02-15T08:24:28;83.15;;;22.25;;
4359;SDS011;2193;47.980;7.660;2023-02-15T08:26:54;39.78;;;18.95;;
4359;SDS011;2193;47.980;7.660;2023-02-15T08:29:20;39.83;;;18.60;;
4359;SDS011;2193;47.980;7.660;2023-02-15T08:31:47;176.23;;;24.77;;
4359;SDS011;2193;47.980;7.660;2023-02-15T08:34:13;53.50;;;21.00;;
4359;SDS011;2193;47.980;7.660;2023-02-15T08:36:39;250.57;;;28.70;;
4359;SDS011;2193;47.980;7.660;2023-02-15T08:39:05;95.97;;;20.50;;
4359;SDS011;2193;47.980;7.660;2023-02-15T08:41:31;63.92;;;20.27;;
4359;SDS011;2193;47.980;7.660;2023-02-15T08:43:58;149.75;;;25.20;;
4359;SDS011;2193;47.980;7.660;2023-02-15T08:46:24;234.95;;;29.70;;
4359;SDS011;2193;47.980;7.660;2023-02-15T08:48:50;201.93;;;26.77;;
4359;SDS011;2193;47.980;7.660;2023-02-15T08:51:17;101.97;;;22.23;;
4359;SDS011;2193;47.980;7.660;2023-02-15T08:53:44;88.25;;;21.70;;
4359;SDS011;2193;47.980;7.660;2023-02-15T08:56:09;244.05;;;28.42;;
4359;SDS011;2193;47.980;7.660;2023-02-15T08:58:35;73.07;;;19.10;;
4359;SDS011;2193;47.980;7.660;2023-02-15T09:01:00;51.40;;;20.03;;
4359;SDS011;2193;47.980;7.660;2023-02-15T09:03:27;44.83;;;19.75;;
4359;SDS011;2193;47.980;7.660;2023-02-15T09:05:56;69.67;;;20.83;;
4359;SDS011;2193;47.980;7.660;2023-02-15T09:08:21;71.80;;;19.73;;
4359;SDS011;2193;47.980;7.660;2023-02-15T09:10:46;157.37;;;22.93;;
4359;SDS011;2193;47.980;7.660;2023-02-15T09:13:12;109.47;;;21.03;;
4359;SDS011;2193;47.980;7.660;2023-02-15T09:15:38;59.07;;;19.70;;
4359;SDS011;2193;47.980;7.660;2023-02-15T09:18:03;76.03;;;19.90;;
4359;SDS011;2193;47.980;7.660;2023-02-15T09:20:31;44.35;;;18.15;;
4359;SDS011;2193;47.980;7.660;2023-02-15T09:22:56;66.43;;;20.43;;
4359;SDS011;2193;47.980;7.660;2023-02-15T09:25:21;38.33;;;20.20;;
4359;SDS011;2193;47.980;7.660;2023-02-15T09:27:46;58.27;;;21.00;;
4359;SDS011;2193;47.980;7.660;2023-02-15T09:30:12;196.50;;;24.83;;
4359;SDS011;2193;47.980;7.660;2023-02-15T09:32:37;42.17;;;22.30;;
4359;SDS011;2193;47.980;7.660;2023-02-15T09:35:02;61.73;;;20.63;;
4359;SDS011;2193;47.980;7.660;2023-02-15T09:37:27;39.40;;;20.53;;
4359;SDS011;2193;47.980;7.660;2023-02-15T09:39:54;52.28;;;22.02;;
4359;SDS011;2193;47.980;7.660;2023-02-15T09:42:27;89.43;;;19.87;;
4359;SDS011;2193;47.980;7.660;2023-02-15T09:47:43;164.63;;;22.88;;
4359;SDS011;2193;47.980;7.660;2023-02-15T09:50:14;47.10;;;20.48;;
4359;SDS011;2193;47.980;7.660;2023-02-15T09:57:51;43.20;;;20.73;;
4359;SDS011;2193;47.980;7.660;2023-02-15T10:00:24;70.22;;;21.13;;
4359;SDS011;2193;47.980;7.660;2023-02-15T10:08:05;82.03;;;21.27;;
4359;SDS011;2193;47.980;7.660;2023-02-15T10:23:41;61.83;;;22.02;;
4359;SDS011;2193;47.980;7.660;2023-02-15T10:26:15;39.53;;;21.02;;
4359;SDS011;2193;47.980;7.660;2023-02-15T10:31:22;33.08;;;19.85;;
4359;SDS011;2193;47.980;7.660;2023-02-15T10:33:48;34.58;;;18.85;;
4359;SDS011;2193;47.980;7.660;2023-02-15T10:36:28;34.33;;;18.45;;
4359;SDS011;2193;47.980;7.660;2023-02-15T10:46:45;39.97;;;21.00;;
4359;SDS011;2193;47.980;7.660;2023-02-15T10:52:02;38.70;;;20.40;;
4359;SDS011;2193;47.980;7.660;2023-02-15T10:57:02;41.78;;;22.10;;
4359;SDS011;2193;47.980;7.660;2023-02-15T11:04:58;70.85;;;22.10;;
4359;SDS011;2193;47.980;7.660;2023-02-15T11:07:33;39.80;;;21.75;;
4359;SDS011;2193;47.980;7.660;2023-02-15T11:12:40;35.80;;;19.75;;
4359;SDS011;2193;47.980;7.660;2023-02-15T11:17:35;37.95;;;20.67;;
4359;SDS011;2193;47.980;7.660;2023-02-15T11:22:34;37.00;;;20.15;;
4359;SDS011;2193;47.980;7.660;2023-02-15T11:25:00;35.50;;;19.97;;
4359;SDS011;2193;47.980;7.660;2023-02-15T11:27:27;34.30;;;20.58;;
4359;SDS011;2193;47.980;7.660;2023-02-15T11:30:00;37.38;;;20.85;;
4359;SDS011;2193;47.980;7.660;2023-02-15T11:34:58;40.03;;;20.65;;
4359;SDS011;2193;47.980;7.660;2023-02-15T11:38:01;36.75;;;20.48;;
4359;SDS011;2193;47.980;7.660;2023-02-15T11:40:21;36.30;;;20.42;;
4359;SDS011;2193;47.980;7.660;2023-02-15T11:42:49;37.53;;;22.45;;
4359;SDS011;2193;47.980;7.660;2023-02-15T11:47:40;33.90;;;19.67;;
4359;SDS011;2193;47.980;7.660;2023-02-15T11:50:10;33.50;;;20.40;;
4359;SDS011;2193;47.980;7.660;2023-02-15T11:52:35;29.77;;;18.20;;
4359;SDS011;2193;47.980;7.660;2023-02-15T11:55:01;35.33;;;18.10;;
4359;SDS011;2193;47.980;7.660;2023-02-15T11:57:28;30.27;;;17.80;;
4359;SDS011;2193;47.980;7.660;2023-02-15T12:00:16;32.53;;;18.67;;
4359;SDS011;2193;47.980;7.660;2023-02-15T12:02:44;32.72;;;18.65;;
4359;SDS011;2193;47.980;7.660;2023-02-15T12:05:12;30.90;;;19.13;;
4359;SDS011;2193;47.980;7.660;2023-02-15T12:07:44;31.20;;;18.42;;
4359;SDS011;2193;47.980;7.660;2023-02-15T12:13:14;28.92;;;18.63;;
4359;SDS011;2193;47.980;7.660;2023-02-15T12:15:40;28.23;;;18.17;;
4359;SDS011;2193;47.980;7.660;2023-02-15T12:18:15;25.60;;;17.20;;
4359;SDS011;2193;47.980;7.660;2023-02-15T12:20:42;26.30;;;16.70;;
4359;SDS011;2193;47.980;7.660;2023-02-15T12:23:11;26.40;;;16.13;;
4359;SDS011;2193;47.980;7.660;2023-02-15T12:25:39;25.63;;;16.67;;
4359;SDS011;2193;47.980;7.660;2023-02-15T12:28:16;27.37;;;18.00;;
4359;SDS011;2193;47.980;7.660;2023-02-15T12:30:44;24.00;;;17.20;;
4359;SDS011;2193;47.980;7.660;2023-02-15T12:33:16;27.93;;;18.53;;
4359;SDS011;2193;47.980;7.660;2023-02-15T12:35:41;25.87;;;18.10;;
4359;SDS011;2193;47.980;7.660;2023-02-15T12:40:36;24.97;;;18.30;;
4359;SDS011;2193;47.980;7.660;2023-02-15T12:43:02;24.17;;;17.40;;
4359;SDS011;2193;47.980;7.660;2023-02-15T12:45:34;25.03;;;18.30;;
4359;SDS011;2193;47.980;7.660;2023-02-15T12:48:10;26.40;;;19.10;;
4359;SDS011;2193;47.980;7.660;2023-02-15T12:50:39;24.90;;;18.00;;
4359;SDS011;2193;47.980;7.660;2023-02-15T12:55:32;25.27;;;18.17;;
4359;SDS011;2193;47.980;7.660;2023-02-15T13:00:42;23.40;;;17.83;;
4359;SDS011;2193;47.980;7.660;2023-02-15T13:03:15;28.00;;;19.57;;
4359;SDS011;2193;47.980;7.660;2023-02-15T13:05:41;27.13;;;19.37;;
4359;SDS011;2193;47.980;7.660;2023-02-15T13:11:02;27.00;;;19.80;;
4359;SDS011;2193;47.980;7.660;2023-02-15T13:13:29;25.67;;;19.53;;
4359;SDS011;2193;47.980;7.660;2023-02-15T13:16:15;26.00;;;19.30;;
4359;SDS011;2193;47.980;7.660;2023-02-15T13:18:44;27.90;;;20.43;;
4359;SDS011;2193;47.980;7.660;2023-02-15T13:21:11;26.93;;;19.50;;
4359;SDS011;2193;47.980;7.660;2023-02-15T13:23:37;29.50;;;20.30;;
4359;SDS011;2193;47.980;7.660;2023-02-15T13:26:03;30.90;;;20.83;;
4359;SDS011;2193;47.980;7.660;2023-02-15T13:28:42;29.33;;;21.30;;
4359;SDS011;2193;47.980;7.660;2023-02-15T13:31:13;27.67;;;20.47;;
4359;SDS011;2193;47.980;7.660;2023-02-15T13:33:39;26.77;;;20.83;;
4359;SDS011;2193;47.980;7.660;2023-02-15T13:36:21;28.20;;;19.80;;
4359;SDS011;2193;47.980;7.660;2023-02-15T13:41:27;25.80;;;19.27;;
4359;SDS011;2193;47.980;7.660;2023-02-15T13:46:33;28.40;;;20.60;;
4359;SDS011;2193;47.980;7.660;2023-02-15T13:57:00;29.10;;;20.97;;
4359;SDS011;2193;47.980;7.660;2023-02-15T14:04:25;24.07;;;20.50;;
4359;SDS011;2193;47.980;7.660;2023-02-15T14:17:17;24.03;;;18.93;;
4359;SDS011;2193;47.980;7.660;2023-02-15T14:19:45;27.83;;;20.80;;
4359;SDS011;2193;47.980;7.660;2023-02-15T14:24:49;32.73;;;21.97;;
4359;SDS011;2193;47.980;7.660;2023-02-15T14:27:24;29.27;;;20.87;;
4359;SDS011;2193;47.980;7.660;2023-02-15T14:29:59;28.13;;;22.27;;
4359;SDS011;2193;47.980;7.660;2023-02-15T14:35:29;32.83;;;23.40;;
4359;SDS011;2193;47.980;7.660;2023-02-15T14:38:14;36.80;;;22.50;;
4359;SDS011;2193;47.980;7.660;2023-02-15T14:46:01;29.57;;;20.90;;
4359;SDS011;2193;47.980;7.660;2023-02-15T14:48:30;27.93;;;21.30;;
4359;SDS011;2193;47.980;7.660;2023-02-15T14:50:56;25.17;;;20.73;;
4359;SDS011;2193;47.980;7.660;2023-02-15T14:53:37;33.03;;;20.23;;
4359;SDS011;2193;47.980;7.660;2023-02-15T14:58:38;26.17;;;20.50;;
4359;SDS011;2193;47.980;7.660;2023-02-15T15:01:04;24.17;;;20.07;;
4359;SDS011;2193;47.980;7.660;2023-02-15T15:03:30;24.03;;;19.93;;
4359;SDS011;2193;47.980;7.660;2023-02-15T15:05:56;25.07;;;20.47;;
4359;SDS011;2193;47.980;7.660;2023-02-15T15:08:38;28.07;;;21.47;;
4359;SDS011;2193;47.980;7.660;2023-02-15T15:11:36;26.47;;;20.80;;
4359;SDS011;2193;47.980;7.660;2023-02-15T15:14:02;29.07;;;21.17;;
4359;SDS011;2193;47.980;7.660;2023-02-15T15:16:47;28.17;;;19.80;;
4359;SDS011;2193;47.980;7.660;2023-02-15T15:19:57;27.30;;;20.17;;
4359;SDS011;2193;47.980;7.660;2023-02-15T15:22:03;23.33;;;18.17;;
4359;SDS011;2193;47.980;7.660;2023-02-15T15:29:46;26.53;;;18.60;;
4359;SDS011;2193;47.980;7.660;2023-02-15T15:32:11;31.50;;;19.77;;
4359;SDS011;2193;47.980;7.660;2023-02-15T15:50:19;29.53;;;18.80;;
4359;SDS011;2193;47.980;7.660;2023-02-15T15:52:54;26.83;;;19.00;;
4359;SDS011;2193;47.980;7.660;2023-02-15T15:55:20;28.10;;;19.30;;
4359;SDS011;2193;47.980;7.660;2023-02-15T15:57:47;23.50;;;17.20;;
4359;SDS011;2193;47.980;7.660;2023-02-15T16:00:31;27.70;;;19.87;;
4359;SDS011;2193;47.980;7.660;2023-02-15T16:02:58;26.77;;;18.17;;
4359;SDS011;2193;47.980;7.660;2023-02-15T16:05:23;27.53;;;18.70;;
4359;SDS011;2193;47.980;7.660;2023-02-15T16:07:48;33.97;;;19.30;;
4359;SDS011;2193;47.980;7.660;2023-02-15T16:12:45;29.67;;;18.87;;
4359;SDS011;2193;47.980;7.660;2023-02-15T16:15:16;29.67;;;19.30;;
4359;SDS011;2193;47.980;7.660;2023-02-15T16:17:45;33.17;;;18.60;;
4359;SDS011;2193;47.980;7.660;2023-02-15T16:22:37;28.63;;;18.03;;
4359;SDS011;2193;47.980;7.660;2023-02-15T16:27:38;29.60;;;18.67;;
4359;SDS011;2193;47.980;7.660;2023-02-15T16:32:45;33.73;;;20.00;;
4359;SDS011;2193;47.980;7.660;2023-02-15T16:35:15;32.00;;;18.83;;
4359;SDS011;2193;47.980;7.660;2023-02-15T16:37:40;32.77;;;19.13;;
4359;SDS011;2193;47.980;7.660;2023-02-15T16:40:05;31.57;;;20.63;;
4359;SDS011;2193;47.980;7.660;2023-02-15T16:42:31;30.83;;;20.00;;
4359;SDS011;2193;47.980;7.660;2023-02-15T16:45:07;36.93;;;19.60;;
4359;SDS011;2193;47.980;7.660;2023-02-15T16:47:35;35.03;;;20.70;;
4359;SDS011;2193;47.980;7.660;2023-02-15T16:50:02;34.60;;;20.38;;
4359;SDS011;2193;47.980;7.660;2023-02-15T16:52:28;35.72;;;19.70;;
4359;SDS011;2193;47.980;7.660;2023-02-15T16:54:55;32.10;;;19.77;;
4359;SDS011;2193;47.980;7.660;2023-02-15T16:57:22;34.47;;;18.77;;
4359;SDS011;2193;47.980;7.660;2023-02-15T16:59:49;29.92;;;18.17;;
4359;SDS011;2193;47.980;7.660;2023-02-15T17:02:18;31.25;;;18.65;;
4359;SDS011;2193;47.980;7.660;2023-02-15T17:04:44;33.80;;;19.70;;
4359;SDS011;2193;47.980;7.660;2023-02-15T17:07:19;36.37;;;19.70;;
4359;SDS011;2193;47.980;7.660;2023-02-15T17:09:51;37.95;;;21.10;;
4359;SDS011;2193;47.980;7.660;2023-02-15T17:15:00;36.28;;;20.40;;
4359;SDS011;2193;47.980;7.660;2023-02-15T17:17:25;38.10;;;21.67;;
4359;SDS011;2193;47.980;7.660;2023-02-15T17:19:51;33.60;;;20.50;;
4359;SDS011;2193;47.980;7.660;2023-02-15T17:22:21;35.72;;;21.90;;
4359;SDS011;2193;47.980;7.660;2023-02-15T17:24:48;42.03;;;22.55;;
4359;SDS011;2193;47.980;7.660;2023-02-15T17:27:18;40.78;;;23.67;;
4359;SDS011;2193;47.980;7.660;2023-02-15T17:29:55;48.35;;;26.67;;
4359;SDS011;2193;47.980;7.660;2023-02-15T17:32:22;58.67;;;31.02;;
4359;SDS011;2193;47.980;7.660;2023-02-15T17:34:57;47.78;;;27.92;;
4359;SDS011;2193;47.980;7.660;2023-02-15T17:37:28;47.42;;;27.45;;
4359;SDS011;2193;47.980;7.660;2023-02-15T17:39:54;45.90;;;26.27;;
4359;SDS011;2193;47.980;7.660;2023-02-15T17:42:19;47.53;;;26.53;;
4359;SDS011;2193;47.980;7.660;2023-02-15T17:44:45;53.27;;;26.77;;
4359;SDS011;2193;47.980;7.660;2023-02-15T17:47:19;51.53;;;28.97;;
4359;SDS011;2193;47.980;7.660;2023-02-15T17:49:45;51.80;;;31.17;;